createdAt,value
2023-08-03T00:00:50.972Z,1.80
2023-08-03T00:03:30.085Z,1.90
2023-08-03T00:05:56.912Z,1.60
2023-08-03T00:08:23.598Z,1.80
2023-08-03T00:10:50.596Z,2.00
2023-08-03T00:13:17.248Z,1.70
2023-08-03T00:15:44.058Z,2.00
2023-08-03T00:18:11.136Z,1.80
2023-08-03T00:20:37.992Z,1.40
2023-08-03T00:23:04.829Z,2.10
2023-08-03T00:25:31.793Z,2.10
2023-08-03T00:27:58.724Z,2.00
2023-08-03T00:30:25.836Z,1.80
2023-08-03T00:32:52.787Z,1.70
2023-08-03T00:35:19.452Z,1.90
2023-08-03T00:37:46.441Z,2.00
2023-08-03T00:40:15.628Z,1.90
2023-08-03T00:42:42.492Z,1.90
2023-08-03T00:45:12.063Z,2.30
2023-08-03T00:47:42.175Z,2.00
2023-08-03T00:50:09.505Z,2.00
2023-08-03T00:52:38.440Z,2.00
2023-08-03T00:55:06.162Z,1.90
2023-08-03T00:57:32.920Z,2.90
2023-08-03T00:59:59.957Z,3.20
2023-08-03T01:02:26.872Z,3.70
2023-08-03T01:04:54.596Z,3.50
2023-08-03T01:07:22.346Z,3.70
2023-08-03T01:09:49.603Z,3.30
2023-08-03T01:12:17.973Z,3.90
2023-08-03T01:14:45.485Z,3.70
2023-08-03T01:17:12.504Z,3.10
2023-08-03T01:19:39.766Z,3.40
2023-08-03T01:22:10.388Z,3.00
2023-08-03T01:24:37.232Z,3.80
2023-08-03T01:27:04.696Z,3.60
2023-08-03T01:29:31.640Z,3.60
2023-08-03T01:32:00.693Z,3.30
2023-08-03T01:34:28.311Z,3.50
2023-08-03T01:36:56.734Z,3.10
2023-08-03T01:39:25.416Z,3.40
2023-08-03T01:41:52.444Z,3.10
2023-08-03T01:44:28.709Z,2.90
2023-08-03T01:46:57.517Z,2.90
2023-08-03T01:49:29.362Z,2.70
2023-08-03T01:51:56.829Z,2.80
2023-08-03T01:54:25.006Z,2.70
2023-08-03T01:56:56.285Z,3.40
2023-08-03T01:59:23.503Z,3.10
2023-08-03T02:01:51.193Z,3.20
2023-08-03T02:04:19.288Z,3.40
2023-08-03T02:06:49.691Z,3.00
2023-08-03T02:09:16.479Z,2.50
2023-08-03T02:11:44.316Z,2.40
2023-08-03T02:14:11.306Z,2.90
2023-08-03T02:16:38.089Z,2.50
2023-08-03T02:19:04.917Z,2.70
2023-08-03T02:21:32.246Z,2.50
2023-08-03T02:23:59.164Z,2.30
2023-08-03T02:26:26.265Z,2.50
2023-08-03T02:28:54.100Z,2.50
2023-08-03T02:31:20.997Z,2.30
2023-08-03T02:33:49.377Z,2.20
2023-08-03T02:36:18.170Z,2.10
2023-08-03T02:38:45.585Z,2.20
2023-08-03T02:41:14.263Z,1.90
2023-08-03T02:43:41.629Z,2.10
2023-08-03T02:46:08.507Z,1.90
2023-08-03T02:48:35.857Z,1.90
2023-08-03T02:51:03.912Z,1.90
2023-08-03T02:53:32.972Z,1.90
2023-08-03T02:55:59.859Z,1.70
2023-08-03T02:58:27.844Z,2.10
2023-08-03T03:00:54.990Z,2.20
2023-08-03T03:03:22.757Z,2.00
2023-08-03T03:05:50.234Z,2.90
2023-08-03T03:08:17.596Z,2.50
2023-08-03T03:10:44.749Z,2.70
2023-08-03T03:13:12.017Z,2.60
2023-08-03T03:15:40.372Z,2.80
2023-08-03T03:18:07.373Z,2.70
2023-08-03T03:20:34.280Z,2.50
2023-08-03T03:23:00.903Z,2.40
2023-08-03T03:25:27.779Z,2.80
2023-08-03T03:27:54.966Z,3.20
2023-08-03T03:30:22.609Z,3.30
2023-08-03T03:32:49.334Z,2.70
2023-08-03T03:35:16.186Z,2.60
2023-08-03T03:37:43.050Z,3.00
2023-08-03T03:40:10.329Z,2.80
2023-08-03T03:42:40.212Z,2.80
2023-08-03T03:45:08.620Z,2.50
2023-08-03T03:47:36.289Z,2.80
2023-08-03T03:50:04.389Z,2.60
2023-08-03T03:52:32.341Z,2.40
2023-08-03T03:54:59.171Z,2.80
2023-08-03T03:57:26.950Z,2.80
2023-08-03T03:59:53.701Z,2.40
2023-08-03T04:02:20.440Z,2.60
2023-08-03T04:04:47.495Z,2.60
2023-08-03T04:07:14.346Z,3.10
2023-08-03T04:09:41.187Z,2.30
2023-08-03T04:12:08.755Z,2.50
2023-08-03T04:14:35.608Z,2.30
2023-08-03T04:17:02.666Z,2.60
2023-08-03T04:19:30.781Z,2.70
2023-08-03T04:21:57.535Z,3.00
2023-08-03T04:24:24.962Z,2.60
2023-08-03T04:26:52.456Z,2.40
2023-08-03T04:29:22.463Z,2.70
2023-08-03T04:31:50.619Z,2.80
2023-08-03T04:34:18.372Z,2.90
2023-08-03T04:36:48.304Z,3.20
2023-08-03T04:39:15.555Z,3.20
2023-08-03T04:41:42.501Z,2.70
2023-08-03T04:44:09.761Z,2.70
2023-08-03T04:46:37.872Z,3.30
2023-08-03T04:49:05.785Z,2.40
2023-08-03T04:51:33.214Z,2.70
2023-08-03T04:54:01.555Z,2.90
2023-08-03T04:56:29.615Z,2.40
2023-08-03T04:58:56.488Z,3.00
2023-08-03T05:01:23.477Z,2.70
2023-08-03T05:03:53.025Z,2.60
2023-08-03T05:06:19.940Z,2.50
2023-08-03T05:08:47.275Z,2.90
2023-08-03T05:11:18.096Z,2.70
2023-08-03T05:13:44.939Z,2.70
2023-08-03T05:16:12.011Z,2.20
2023-08-03T05:18:39.061Z,3.40
2023-08-03T05:21:05.804Z,2.60
2023-08-03T05:23:32.401Z,2.50
2023-08-03T05:25:59.301Z,2.60
2023-08-03T05:28:26.855Z,2.80
2023-08-03T05:30:53.800Z,3.40
2023-08-03T05:33:20.778Z,2.70
2023-08-03T05:35:51.115Z,3.30
2023-08-03T05:38:18.769Z,2.50
2023-08-03T05:40:45.914Z,2.50
2023-08-03T05:43:14.779Z,2.70
2023-08-03T05:45:49.580Z,2.80
2023-08-03T05:48:18.952Z,2.60
2023-08-03T05:50:54.808Z,2.90
2023-08-03T05:53:21.772Z,2.60
2023-08-03T05:56:01.840Z,2.90
2023-08-03T05:58:37.874Z,2.70
2023-08-03T06:01:07.732Z,2.10
2023-08-03T06:03:35.921Z,3.00
2023-08-03T06:06:05.357Z,3.10
2023-08-03T06:08:34.165Z,2.60
2023-08-03T06:11:05.331Z,3.40
2023-08-03T06:13:36.047Z,2.70
2023-08-03T06:16:04.974Z,2.70
2023-08-03T06:18:32.926Z,2.70
2023-08-03T06:20:59.633Z,2.80
2023-08-03T06:23:27.941Z,2.70
2023-08-03T06:25:56.405Z,2.50
2023-08-03T06:28:24.615Z,2.30
2023-08-03T06:30:52.656Z,2.70
2023-08-03T06:33:24.262Z,2.50
2023-08-03T06:35:55.096Z,2.60
2023-08-03T06:38:23.371Z,2.70
2023-08-03T06:40:51.091Z,2.90
2023-08-03T06:43:18.515Z,2.70
2023-08-03T06:45:45.680Z,2.30
2023-08-03T06:48:12.900Z,2.50
2023-08-03T06:50:39.854Z,3.00
2023-08-03T06:53:07.412Z,2.30
2023-08-03T06:55:34.257Z,2.40
2023-08-03T06:58:01.101Z,2.70
2023-08-03T07:00:28.171Z,2.90
2023-08-03T07:02:58.397Z,2.60
2023-08-03T07:05:25.766Z,3.10
2023-08-03T07:07:52.482Z,2.40
2023-08-03T07:10:19.453Z,2.50
2023-08-03T07:12:49.444Z,2.30
2023-08-03T07:15:16.655Z,2.40
2023-08-03T07:17:43.731Z,2.20
2023-08-03T07:20:11.703Z,2.40
2023-08-03T07:22:38.827Z,2.30
2023-08-03T07:25:07.653Z,2.10
2023-08-03T07:27:34.474Z,2.60
2023-08-03T07:30:01.188Z,2.70
2023-08-03T07:32:27.965Z,2.20
2023-08-03T07:34:54.899Z,2.30
2023-08-03T07:37:21.646Z,2.60
2023-08-03T07:39:48.880Z,2.60
2023-08-03T07:42:15.728Z,2.40
2023-08-03T07:47:14.094Z,2.40
2023-08-03T07:49:40.904Z,2.40
2023-08-03T07:52:08.362Z,2.30
2023-08-03T07:54:35.329Z,2.50
2023-08-03T07:57:02.484Z,2.60
2023-08-03T07:59:29.335Z,2.70
2023-08-03T08:01:56.295Z,2.30
2023-08-03T08:04:23.235Z,2.90
2023-08-03T08:06:49.902Z,2.80
2023-08-03T08:09:16.716Z,3.00
2023-08-03T08:11:44.255Z,3.20
2023-08-03T08:14:11.557Z,3.80
2023-08-03T08:16:39.190Z,3.30
2023-08-03T08:19:06.184Z,3.50
2023-08-03T08:21:33.056Z,3.40
2023-08-03T08:23:59.933Z,3.90
2023-08-03T08:26:27.156Z,3.10
2023-08-03T08:29:04.253Z,3.50
2023-08-03T08:31:52.797Z,3.20
2023-08-03T08:34:19.297Z,3.30
2023-08-03T08:36:46.094Z,2.80
2023-08-03T08:39:12.969Z,3.70
2023-08-03T08:41:41.543Z,3.20
2023-08-03T08:44:13.498Z,3.60
2023-08-03T08:46:44.432Z,3.50
2023-08-03T08:49:40.036Z,3.40
2023-08-03T08:52:03.201Z,3.70
2023-08-03T08:57:08.540Z,3.70
2023-08-03T08:59:59.102Z,3.80
2023-08-03T09:02:26.928Z,4.10
2023-08-03T09:04:54.042Z,3.50
2023-08-03T09:07:21.086Z,4.10
2023-08-03T09:09:48.141Z,3.90
2023-08-03T09:12:42.857Z,4.40
2023-08-03T09:15:10.295Z,3.90
2023-08-03T09:17:37.336Z,3.90
2023-08-03T09:25:21.147Z,4.00
2023-08-03T09:33:33.000Z,4.20
2023-08-03T09:36:31.016Z,3.90
2023-08-03T09:39:31.116Z,3.80
2023-08-03T09:41:59.279Z,3.90
2023-08-03T09:44:27.990Z,4.00
2023-08-03T09:46:55.458Z,3.90
2023-08-03T09:49:22.187Z,4.00
2023-08-03T09:57:30.046Z,3.60
2023-08-03T10:00:06.744Z,4.40
2023-08-03T10:02:53.199Z,4.20
2023-08-03T10:05:21.960Z,4.10
2023-08-03T10:08:06.437Z,4.00
2023-08-03T10:10:38.688Z,3.50
2023-08-03T10:13:05.542Z,4.00
2023-08-03T10:15:34.363Z,5.00
2023-08-03T10:18:05.279Z,4.80
2023-08-03T10:20:33.674Z,5.60
2023-08-03T10:23:06.741Z,5.20
2023-08-03T10:25:33.702Z,4.80
2023-08-03T10:28:16.004Z,5.10
2023-08-03T10:31:19.400Z,4.70
2023-08-03T10:36:26.842Z,4.00
2023-08-03T10:39:04.166Z,4.50
2023-08-03T10:41:39.690Z,4.40
2023-08-03T10:44:06.654Z,3.80
2023-08-03T10:46:41.975Z,3.90
2023-08-03T10:49:21.678Z,4.00
2023-08-03T10:51:55.800Z,4.00
2023-08-03T10:54:30.431Z,3.80
2023-08-03T10:57:11.488Z,3.80
2023-08-03T10:59:38.636Z,3.80
2023-08-03T11:02:29.992Z,3.50
2023-08-03T11:05:01.908Z,3.80
2023-08-03T11:07:36.556Z,3.70
2023-08-03T11:10:05.866Z,3.50
2023-08-03T11:12:33.599Z,3.50
2023-08-03T11:15:05.712Z,4.30
2023-08-03T11:17:34.820Z,3.40
2023-08-03T11:20:04.267Z,3.60
2023-08-03T11:22:33.621Z,3.60
2023-08-03T11:25:04.432Z,3.70
2023-08-03T11:27:32.195Z,4.40
2023-08-03T11:30:00.093Z,4.20
2023-08-03T11:32:29.082Z,3.90
2023-08-03T11:34:59.656Z,3.70
2023-08-03T11:37:30.870Z,3.90
2023-08-03T11:39:59.655Z,3.70
2023-08-03T11:42:27.412Z,3.80
2023-08-03T11:44:56.178Z,3.80
2023-08-03T11:47:24.921Z,3.70
2023-08-03T11:49:57.169Z,3.90
2023-08-03T11:52:24.249Z,4.10
2023-08-03T11:54:51.286Z,4.30
2023-08-03T11:57:39.042Z,3.90
2023-08-03T12:00:07.103Z,4.20
2023-08-03T12:02:44.962Z,4.60
2023-08-03T12:05:18.537Z,4.30
2023-08-03T12:10:25.989Z,4.10
2023-08-03T12:12:54.465Z,3.70
2023-08-03T12:17:54.966Z,4.00
2023-08-03T12:20:22.265Z,4.00
2023-08-03T12:22:49.158Z,4.70
2023-08-03T12:25:16.026Z,4.60
2023-08-03T12:27:42.874Z,3.90
2023-08-03T12:30:09.744Z,4.10
2023-08-03T12:32:36.670Z,4.00
2023-08-03T12:35:04.218Z,4.20
2023-08-03T12:37:31.263Z,4.40
2023-08-03T12:39:57.959Z,3.80
2023-08-03T12:42:24.831Z,4.10
2023-08-03T12:44:51.705Z,4.50
2023-08-03T12:47:18.633Z,3.90
2023-08-03T12:49:45.580Z,4.00
2023-08-03T12:52:12.384Z,4.20
2023-08-03T12:54:39.300Z,4.20
2023-08-03T12:57:06.260Z,4.10
2023-08-03T12:59:33.015Z,4.60
2023-08-03T13:02:00.378Z,4.40
2023-08-03T13:04:27.465Z,4.00
2023-08-03T13:06:54.381Z,4.60
2023-08-03T13:09:21.001Z,4.10
2023-08-03T13:11:47.974Z,4.70
2023-08-03T13:14:14.771Z,4.30
2023-08-03T13:16:41.544Z,4.20
2023-08-03T13:19:08.396Z,4.80
2023-08-03T13:21:35.453Z,4.20
2023-08-03T13:24:02.307Z,4.60
2023-08-03T13:26:30.244Z,4.30
2023-08-03T13:28:57.302Z,4.10
2023-08-03T13:31:24.590Z,4.60
2023-08-03T13:33:52.140Z,4.10
2023-08-03T13:36:18.787Z,4.40
2023-08-03T13:38:45.564Z,4.30
2023-08-03T13:41:12.591Z,4.40
2023-08-03T13:43:41.496Z,4.50
2023-08-03T13:46:08.398Z,4.30
2023-08-03T13:48:35.261Z,4.50
2023-08-03T13:51:02.359Z,4.40
2023-08-03T13:53:29.283Z,4.50
2023-08-03T13:55:56.278Z,4.20
2023-08-03T14:00:52.890Z,4.30
2023-08-03T14:03:34.455Z,4.70
2023-08-03T14:11:19.558Z,4.70
2023-08-03T14:18:48.398Z,4.90
2023-08-03T14:21:43.750Z,4.60
2023-08-03T14:24:02.691Z,4.80
2023-08-03T14:26:30.329Z,4.70
2023-08-03T14:31:27.415Z,5.20
2023-08-03T14:33:54.437Z,4.20
2023-08-03T14:36:21.203Z,4.80
2023-08-03T14:38:48.214Z,5.00
2023-08-03T14:41:18.085Z,4.50
2023-08-03T14:43:45.694Z,4.90
2023-08-03T14:46:13.140Z,5.10
2023-08-03T14:48:40.295Z,5.00
2023-08-03T14:52:24.668Z,4.60
2023-08-03T14:53:54.760Z,4.70
2023-08-03T14:58:52.924Z,4.60
2023-08-03T15:01:20.225Z,4.30
2023-08-03T15:03:47.171Z,4.50
2023-08-03T15:06:15.730Z,4.90
2023-08-03T15:08:43.859Z,4.20
2023-08-03T15:11:11.534Z,4.70
2023-08-03T15:13:38.789Z,4.90
2023-08-03T15:18:43.545Z,4.50
2023-08-03T15:21:21.446Z,4.40
2023-08-03T15:23:53.756Z,4.80
2023-08-03T15:26:25.552Z,4.90
2023-08-03T15:28:58.321Z,4.60
2023-08-03T15:31:26.204Z,4.70
2023-08-03T15:33:54.002Z,4.90
2023-08-03T15:36:39.094Z,5.30
2023-08-03T15:39:08.281Z,5.30
2023-08-03T15:41:42.124Z,4.80
2023-08-03T15:44:14.443Z,4.80
2023-08-03T15:47:09.769Z,5.30
2023-08-03T15:49:33.300Z,4.80
2023-08-03T15:52:11.274Z,4.60
2023-08-03T15:54:43.972Z,4.50
2023-08-03T15:57:15.263Z,4.90
2023-08-03T15:59:42.105Z,4.90
2023-08-03T16:02:09.030Z,4.40
2023-08-03T16:04:35.805Z,4.70
2023-08-03T16:07:02.796Z,5.20
2023-08-03T16:09:29.642Z,4.50
2023-08-03T16:11:56.386Z,4.40
2023-08-03T16:14:23.156Z,4.30
2023-08-03T16:16:50.326Z,4.60
2023-08-03T16:19:17.822Z,4.70
2023-08-03T16:21:44.698Z,5.00
2023-08-03T16:24:11.733Z,5.00
2023-08-03T16:26:38.542Z,4.70
2023-08-03T16:29:05.411Z,5.00
2023-08-03T16:31:38.421Z,5.20
2023-08-03T16:36:37.124Z,5.20
2023-08-03T16:39:05.095Z,5.30
2023-08-03T16:41:32.238Z,5.10
2023-08-03T16:43:59.099Z,5.70
2023-08-03T16:46:25.893Z,5.30
2023-08-03T16:48:54.355Z,5.80
2023-08-03T16:51:21.611Z,5.50
2023-08-03T16:53:48.474Z,5.40
2023-08-03T16:56:15.309Z,5.00
2023-08-03T16:58:42.038Z,4.90
2023-08-03T17:01:08.940Z,5.70
2023-08-03T17:03:35.912Z,5.50
2023-08-03T17:06:02.945Z,5.80
2023-08-03T17:08:29.623Z,5.70
2023-08-03T17:10:56.417Z,5.60
2023-08-03T17:13:24.008Z,5.40
2023-08-03T17:15:51.615Z,5.30
2023-08-03T17:18:18.975Z,5.70
2023-08-03T17:20:45.941Z,5.20
2023-08-03T17:23:12.613Z,5.30
2023-08-03T17:25:39.518Z,5.60
2023-08-03T17:28:06.573Z,5.60
2023-08-03T17:30:35.387Z,5.50
2023-08-03T17:33:02.226Z,5.30
2023-08-03T17:35:30.509Z,5.80
2023-08-03T17:37:57.357Z,5.30
2023-08-03T17:40:24.339Z,5.60
2023-08-03T17:42:51.197Z,5.50
2023-08-03T17:45:18.040Z,5.70
2023-08-03T17:47:44.985Z,5.80
2023-08-03T17:50:11.851Z,6.00
2023-08-03T17:52:38.468Z,6.00
2023-08-03T17:55:05.803Z,5.50
2023-08-03T17:57:34.196Z,5.60
2023-08-03T18:00:00.938Z,5.80
2023-08-03T18:02:28.125Z,5.90
2023-08-03T18:04:56.508Z,5.40
2023-08-03T18:07:23.650Z,5.70
2023-08-03T18:09:50.553Z,5.70
2023-08-03T18:12:17.440Z,5.60
2023-08-03T18:14:49.095Z,5.90
2023-08-03T18:17:16.936Z,6.00
2023-08-03T18:19:44.116Z,5.30
2023-08-03T18:22:10.869Z,5.70
2023-08-03T18:24:38.326Z,5.70
2023-08-03T18:27:07.188Z,6.60
2023-08-03T18:29:34.513Z,5.80
2023-08-03T18:32:01.632Z,6.30
2023-08-03T18:34:29.411Z,6.20
2023-08-03T18:36:56.362Z,5.60
2023-08-03T18:39:23.116Z,5.70
2023-08-03T18:41:49.789Z,6.20
2023-08-03T18:44:16.483Z,5.10
2023-08-03T18:46:43.338Z,5.60
2023-08-03T18:49:11.007Z,5.50
2023-08-03T18:51:37.661Z,5.40
2023-08-03T18:54:04.311Z,6.00
2023-08-03T18:56:31.170Z,6.20
2023-08-03T18:58:59.014Z,6.20
2023-08-03T19:01:29.115Z,6.70
2023-08-03T19:03:57.779Z,6.90
2023-08-03T19:06:26.624Z,7.00
2023-08-03T19:08:53.790Z,6.80
2023-08-03T19:11:21.354Z,6.10
2023-08-03T19:13:48.142Z,6.70
2023-08-03T19:16:14.924Z,6.10
2023-08-03T19:18:42.526Z,7.00
2023-08-03T19:21:10.016Z,6.30
2023-08-03T19:23:36.731Z,6.80
2023-08-03T19:26:03.517Z,7.30
2023-08-03T19:28:30.336Z,7.60
2023-08-03T19:30:58.525Z,7.00
2023-08-03T19:33:25.900Z,7.20
2023-08-03T19:35:54.034Z,6.80
2023-08-03T19:38:20.714Z,6.40
2023-08-03T19:40:48.528Z,6.80
2023-08-03T19:43:16.269Z,6.50
2023-08-03T19:45:43.853Z,6.10
2023-08-03T19:48:11.043Z,7.10
2023-08-03T19:55:44.924Z,6.80
2023-08-03T20:08:14.352Z,7.80
2023-08-03T20:10:44.535Z,7.90
2023-08-03T20:13:11.741Z,8.30
2023-08-03T20:20:40.154Z,7.80
2023-08-03T20:23:06.951Z,8.20
2023-08-03T20:25:33.899Z,7.90
2023-08-03T20:30:39.022Z,8.50
2023-08-03T20:33:05.939Z,7.40
2023-08-03T20:35:35.655Z,8.30
2023-08-03T20:53:14.311Z,10.00
2023-08-03T20:55:40.996Z,9.40
2023-08-03T20:58:09.692Z,10.40
2023-08-03T21:00:36.696Z,9.70
2023-08-03T21:03:05.768Z,10.60
2023-08-03T21:05:36.825Z,10.20
2023-08-03T21:08:10.330Z,9.40
2023-08-03T21:13:12.480Z,8.90
2023-08-03T21:15:41.512Z,9.40
2023-08-03T21:19:09.921Z,8.20
2023-08-03T21:20:55.738Z,7.50
2023-08-03T21:23:22.520Z,7.80
2023-08-03T21:25:49.352Z,7.90
2023-08-03T21:28:16.216Z,7.50
2023-08-03T21:30:43.143Z,7.60
2023-08-03T21:33:10.068Z,8.50
2023-08-03T21:35:36.974Z,8.30
2023-08-03T21:38:03.781Z,8.10
2023-08-03T21:40:30.804Z,8.60
2023-08-03T21:42:57.817Z,8.80
2023-08-03T21:45:24.967Z,8.60
2023-08-03T21:47:51.951Z,8.60
2023-08-03T21:50:18.736Z,9.00
2023-08-03T21:52:46.316Z,8.90
2023-08-03T21:55:14.513Z,8.60
2023-08-03T21:57:41.257Z,9.20
2023-08-03T22:00:10.434Z,8.80
2023-08-03T22:02:40.074Z,9.20
2023-08-03T22:05:11.908Z,9.00
2023-08-03T22:07:39.776Z,8.60
2023-08-03T22:10:09.484Z,8.10
2023-08-03T22:12:40.139Z,8.00
2023-08-03T22:15:07.605Z,7.40
2023-08-03T22:17:35.725Z,8.20
2023-08-03T22:20:04.645Z,8.00
2023-08-03T22:22:31.641Z,7.70
2023-08-03T22:24:58.595Z,7.10
2023-08-03T22:27:25.632Z,7.10
2023-08-03T22:29:52.488Z,7.50
2023-08-03T22:32:19.339Z,7.80
2023-08-03T22:34:46.297Z,8.10
2023-08-03T22:37:13.130Z,7.90
2023-08-03T22:39:40.076Z,7.40
2023-08-03T22:42:06.851Z,7.80
2023-08-03T22:44:33.594Z,7.90
2023-08-03T22:47:00.301Z,7.80
2023-08-03T22:49:27.470Z,8.40
2023-08-03T22:51:54.199Z,8.30
2023-08-03T22:54:21.068Z,9.00
2023-08-03T22:56:48.118Z,8.60
2023-08-03T22:59:14.969Z,8.80
2023-08-03T23:01:42.136Z,8.70
2023-08-03T23:04:10.076Z,8.40
2023-08-03T23:06:36.984Z,7.80
2023-08-03T23:09:03.864Z,7.30
2023-08-03T23:11:30.877Z,7.20
2023-08-03T23:13:59.500Z,7.50
2023-08-03T23:16:26.754Z,8.30
2023-08-03T23:18:54.868Z,7.90
2023-08-03T23:21:21.868Z,8.10
2023-08-03T23:23:48.789Z,7.90
2023-08-03T23:26:16.448Z,7.80
2023-08-03T23:28:44.364Z,8.10
2023-08-03T23:31:12.724Z,8.90
2023-08-03T23:33:40.587Z,8.40
2023-08-03T23:36:07.867Z,8.40
2023-08-03T23:38:34.796Z,8.10
2023-08-03T23:41:01.528Z,7.90
2023-08-03T23:43:28.295Z,8.80
2023-08-03T23:45:55.053Z,8.80
2023-08-03T23:48:21.896Z,9.00
2023-08-03T23:50:48.646Z,8.50
2023-08-03T23:53:15.285Z,9.40
2023-08-03T23:55:42.319Z,9.00
2023-08-03T23:58:08.951Z,7.50
